createdAt,value
2023-03-22T00:00:00.231Z,5.86
2023-03-22T00:02:27.265Z,6.03
2023-03-22T00:04:54.078Z,6.03
2023-03-22T00:07:21.128Z,6.02
2023-03-22T00:09:47.839Z,6.08
2023-03-22T00:12:14.605Z,5.94
2023-03-22T00:14:41.646Z,5.81
2023-03-22T00:17:08.352Z,5.77
2023-03-22T00:19:35.126Z,5.66
2023-03-22T00:22:03.731Z,5.70
2023-03-22T00:24:30.671Z,5.65
2023-03-22T00:26:58.871Z,5.58
2023-03-22T00:29:25.692Z,5.46
2023-03-22T00:31:54.515Z,5.33
2023-03-22T00:34:21.268Z,5.51
2023-03-22T00:36:48.634Z,5.57
2023-03-22T00:39:15.901Z,5.33
2023-03-22T00:41:42.600Z,5.34
2023-03-22T00:44:09.326Z,5.24
2023-03-22T00:46:37.601Z,5.23
2023-03-22T00:51:31.189Z,5.40
2023-03-22T00:53:57.914Z,5.31
2023-03-22T00:56:25.778Z,5.38
2023-03-22T00:58:52.530Z,5.32
2023-03-22T01:01:19.252Z,5.38
2023-03-22T01:03:50.003Z,5.27
2023-03-22T01:06:16.934Z,5.42
2023-03-22T01:08:43.656Z,5.44
2023-03-22T01:11:10.426Z,5.57
2023-03-22T01:13:38.025Z,5.60
2023-03-22T01:16:06.788Z,5.57
2023-03-22T01:18:34.344Z,5.61
2023-03-22T01:21:01.309Z,5.67
2023-03-22T01:23:28.430Z,5.63
2023-03-22T01:25:55.210Z,5.64
2023-03-22T01:28:22.108Z,5.65
2023-03-22T01:30:49.192Z,5.72
2023-03-22T01:33:16.267Z,5.79
2023-03-22T01:35:43.285Z,5.75
2023-03-22T01:38:10.157Z,5.82
2023-03-22T01:40:37.046Z,5.85
2023-03-22T01:43:04.118Z,5.85
2023-03-22T01:45:36.065Z,5.82
2023-03-22T01:48:06.599Z,5.83
2023-03-22T01:50:33.707Z,5.79
2023-03-22T01:55:33.520Z,5.85
2023-03-22T01:58:02.109Z,5.82
2023-03-22T02:00:29.319Z,5.82
2023-03-22T02:02:56.309Z,5.86
2023-03-22T02:05:23.252Z,6.06
2023-03-22T02:07:51.035Z,6.00
2023-03-22T02:10:22.500Z,6.04
2023-03-22T02:13:07.251Z,6.15
2023-03-22T02:15:43.653Z,6.12
2023-03-22T02:18:47.764Z,6.14
2023-03-22T02:21:26.953Z,6.07
2023-03-22T02:24:06.893Z,5.96
2023-03-22T02:26:41.713Z,6.06
2023-03-22T02:29:16.065Z,6.12
2023-03-22T02:31:56.346Z,6.14
2023-03-22T02:34:36.059Z,6.20
2023-03-22T02:37:05.601Z,6.24
2023-03-22T02:39:45.282Z,6.17
2023-03-22T02:42:29.747Z,6.15
2023-03-22T02:47:40.623Z,6.29
2023-03-22T02:50:10.565Z,6.11
2023-03-22T02:52:46.789Z,6.20
2023-03-22T02:55:36.154Z,6.11
2023-03-22T02:58:06.650Z,6.16
2023-03-22T03:00:34.982Z,6.17
2023-03-22T03:03:11.509Z,6.21
2023-03-22T03:05:45.049Z,6.26
2023-03-22T03:08:13.705Z,6.19
2023-03-22T03:10:42.166Z,6.16
2023-03-22T03:13:13.891Z,6.11
2023-03-22T03:15:45.507Z,6.23
2023-03-22T03:18:15.362Z,6.28
2023-03-22T03:20:54.800Z,6.29
2023-03-22T03:23:32.276Z,6.28
2023-03-22T03:26:05.731Z,6.29
2023-03-22T03:28:39.227Z,6.37
2023-03-22T03:31:14.156Z,6.42
2023-03-22T03:34:06.707Z,6.46
2023-03-22T03:36:38.060Z,6.61
2023-03-22T03:39:06.672Z,6.61
2023-03-22T03:41:34.198Z,6.63
2023-03-22T03:44:01.796Z,6.62
2023-03-22T03:46:29.490Z,6.69
2023-03-22T03:48:58.643Z,6.63
2023-03-22T03:51:28.119Z,6.71
2023-03-22T03:53:54.773Z,6.81
2023-03-22T03:56:21.603Z,6.69
2023-03-22T03:58:48.361Z,6.68
2023-03-22T04:01:15.059Z,6.67
2023-03-22T04:03:41.746Z,6.60
2023-03-22T04:06:09.215Z,6.59
2023-03-22T04:08:36.296Z,6.61
2023-03-22T04:11:02.976Z,6.70
2023-03-22T04:13:30.046Z,6.79
2023-03-22T04:15:58.260Z,6.76
2023-03-22T04:18:25.092Z,6.69
2023-03-22T04:20:53.744Z,6.88
2023-03-22T04:23:22.879Z,6.90
2023-03-22T04:25:50.710Z,6.91
2023-03-22T04:28:19.995Z,6.84
2023-03-22T04:30:52.033Z,6.98
2023-03-22T04:33:20.254Z,6.95
2023-03-22T04:35:47.030Z,7.00
2023-03-22T04:38:14.252Z,6.91
2023-03-22T04:40:47.066Z,6.99
2023-03-22T04:43:15.814Z,6.99
2023-03-22T04:45:44.086Z,6.99
2023-03-22T04:48:11.443Z,6.93
2023-03-22T04:50:40.613Z,6.94
2023-03-22T04:53:08.311Z,6.97
2023-03-22T04:55:35.133Z,6.96
2023-03-22T04:58:01.956Z,6.91
2023-03-22T05:00:30.612Z,6.86
2023-03-22T05:02:58.914Z,6.76
2023-03-22T05:05:25.880Z,6.64
2023-03-22T05:07:52.817Z,6.54
2023-03-22T05:10:19.699Z,6.58
2023-03-22T05:12:46.420Z,6.60
2023-03-22T05:15:14.027Z,6.51
2023-03-22T05:17:40.819Z,6.26
2023-03-22T05:20:10.266Z,6.21
2023-03-22T05:22:41.289Z,6.38
2023-03-22T05:25:10.787Z,6.43
2023-03-22T05:27:39.222Z,6.28
2023-03-22T05:32:31.103Z,6.41
2023-03-22T05:34:57.899Z,6.36
2023-03-22T05:37:25.558Z,6.44
2023-03-22T05:39:52.382Z,6.58
2023-03-22T05:42:19.108Z,6.52
2023-03-22T05:44:45.860Z,6.53
2023-03-22T05:47:12.640Z,6.49
2023-03-22T05:49:39.392Z,6.53
2023-03-22T05:52:06.270Z,6.67
2023-03-22T05:54:33.102Z,6.69
2023-03-22T05:56:59.821Z,6.82
2023-03-22T05:59:26.777Z,7.01
2023-03-22T06:01:53.585Z,7.13
2023-03-22T06:04:21.372Z,7.15
2023-03-22T06:06:48.116Z,7.18
2023-03-22T06:09:17.626Z,7.22
2023-03-22T06:11:44.805Z,7.30
2023-03-22T06:14:11.840Z,7.41
2023-03-22T06:16:38.580Z,7.50
2023-03-22T06:21:31.298Z,7.57
2023-03-22T06:23:57.919Z,7.64
2023-03-22T06:26:24.604Z,7.68
2023-03-22T06:28:51.638Z,7.76
2023-03-22T06:31:18.442Z,7.91
2023-03-22T06:33:45.709Z,7.94
2023-03-22T06:36:12.425Z,8.01
2023-03-22T06:38:39.109Z,8.03
2023-03-22T06:41:05.841Z,8.16
2023-03-22T06:43:32.556Z,8.34
2023-03-22T06:45:59.391Z,8.42
2023-03-22T06:48:26.223Z,8.46
2023-03-22T06:50:52.947Z,8.64
2023-03-22T06:53:19.612Z,8.56
2023-03-22T06:55:46.762Z,8.59
2023-03-22T06:58:13.606Z,8.82
2023-03-22T07:00:40.480Z,8.73
2023-03-22T07:03:07.495Z,8.74
2023-03-22T07:05:34.161Z,8.95
2023-03-22T07:08:00.936Z,9.11
2023-03-22T07:10:27.708Z,9.23
2023-03-22T07:12:54.934Z,9.48
2023-03-22T07:15:24.852Z,9.71
2023-03-22T07:17:52.910Z,9.75
2023-03-22T07:20:20.105Z,9.98
2023-03-22T07:22:46.799Z,9.99
2023-03-22T07:25:13.948Z,10.26
2023-03-22T07:27:41.024Z,10.46
2023-03-22T07:30:09.801Z,10.56
2023-03-22T07:32:36.667Z,10.89
2023-03-22T07:35:03.702Z,11.09
2023-03-22T07:37:30.602Z,11.21
2023-03-22T07:39:57.277Z,11.42
2023-03-22T07:42:24.001Z,11.65
2023-03-22T07:44:50.807Z,11.67
2023-03-22T07:47:27.110Z,11.83
2023-03-22T07:50:00.862Z,11.91
2023-03-22T07:52:27.556Z,11.90
2023-03-22T07:54:54.204Z,12.06
2023-03-22T07:57:20.914Z,12.22
2023-03-22T07:59:47.568Z,12.28
2023-03-22T08:02:14.603Z,12.18
2023-03-22T08:04:41.377Z,12.27
2023-03-22T08:07:10.384Z,12.38
2023-03-22T08:09:37.922Z,12.25
2023-03-22T08:14:36.591Z,12.56
2023-03-22T08:17:05.826Z,12.84
2023-03-22T08:19:34.344Z,12.58
2023-03-22T08:22:01.514Z,12.91
2023-03-22T08:24:28.168Z,12.92
2023-03-22T08:26:54.951Z,13.17
2023-03-22T08:29:23.405Z,13.05
2023-03-22T08:31:51.291Z,13.02
2023-03-22T08:34:18.069Z,13.41
2023-03-22T08:36:44.895Z,13.75
2023-03-22T08:39:11.651Z,13.62
2023-03-22T08:41:39.897Z,13.61
2023-03-22T08:44:07.105Z,14.34
2023-03-22T08:46:33.870Z,14.46
2023-03-22T08:49:02.410Z,14.92
2023-03-22T08:51:29.174Z,14.92
2023-03-22T08:53:58.941Z,15.00
2023-03-22T08:56:27.495Z,15.22
2023-03-22T08:58:54.192Z,15.02
2023-03-22T09:01:21.866Z,15.01
2023-03-22T09:03:48.732Z,15.38
2023-03-22T09:06:15.663Z,15.51
2023-03-22T09:08:42.511Z,15.43
2023-03-22T09:11:09.911Z,14.71
2023-03-22T09:13:36.646Z,15.41
2023-03-22T09:16:04.372Z,14.82
2023-03-22T09:18:31.235Z,14.62
2023-03-22T09:20:58.460Z,14.48
2023-03-22T09:23:25.184Z,14.35
2023-03-22T09:25:51.988Z,14.09
2023-03-22T09:28:19.357Z,15.06
2023-03-22T09:30:46.273Z,15.38
2023-03-22T09:33:13.368Z,16.10
2023-03-22T09:35:42.889Z,15.48
2023-03-22T09:38:10.391Z,14.85
2023-03-22T09:40:43.880Z,14.87
2023-03-22T09:43:13.383Z,15.06
2023-03-22T09:45:43.921Z,14.88
2023-03-22T09:48:27.703Z,14.11
2023-03-22T09:50:55.738Z,14.62
2023-03-22T09:53:26.963Z,15.14
2023-03-22T09:56:06.810Z,15.35
2023-03-22T09:58:40.949Z,15.08
2023-03-22T10:01:29.272Z,16.28
2023-03-22T10:03:59.259Z,15.76
2023-03-22T10:06:31.148Z,15.40
2023-03-22T10:09:06.831Z,14.79
2023-03-22T10:11:46.775Z,14.87
2023-03-22T10:14:26.263Z,15.57
2023-03-22T10:16:56.605Z,16.04
2023-03-22T10:19:29.785Z,16.27
2023-03-22T10:22:01.791Z,15.74
2023-03-22T10:24:35.803Z,16.44
2023-03-22T10:27:02.866Z,16.27
2023-03-22T10:29:41.684Z,16.58
2023-03-22T10:32:20.102Z,16.39
2023-03-22T10:34:47.491Z,16.29
2023-03-22T10:37:23.493Z,15.65
2023-03-22T10:39:54.178Z,15.50
2023-03-22T10:42:23.757Z,15.55
2023-03-22T10:45:00.795Z,15.92
2023-03-22T10:47:43.128Z,15.76
2023-03-22T10:50:28.999Z,16.22
2023-03-22T10:55:31.300Z,15.80
2023-03-22T10:58:06.814Z,16.62
2023-03-22T11:00:33.474Z,17.61
2023-03-22T11:03:01.926Z,16.12
2023-03-22T11:05:30.397Z,15.96
2023-03-22T11:07:58.857Z,16.17
2023-03-22T11:10:33.703Z,16.58
2023-03-22T11:13:05.999Z,16.18
2023-03-22T11:15:35.415Z,17.57
2023-03-22T11:18:06.829Z,18.01
2023-03-22T11:20:35.039Z,17.62
2023-03-22T11:25:35.575Z,17.63
2023-03-22T11:30:34.128Z,16.99
2023-03-22T11:33:06.889Z,17.46
2023-03-22T11:35:36.930Z,17.56
2023-03-22T11:40:36.842Z,17.25
2023-03-22T11:43:06.896Z,17.05
2023-03-22T11:45:38.097Z,17.57
2023-03-22T11:48:07.015Z,17.73
2023-03-22T11:50:38.220Z,18.73
2023-03-22T11:53:06.938Z,18.83
2023-03-22T11:55:36.770Z,18.72
2023-03-22T12:00:37.396Z,19.26
2023-03-22T12:03:06.127Z,19.86
2023-03-22T12:05:37.320Z,19.11
2023-03-22T12:08:06.982Z,18.16
2023-03-22T12:10:40.534Z,17.63
2023-03-22T12:13:21.346Z,18.37
2023-03-22T12:15:56.718Z,19.27
2023-03-22T12:18:34.562Z,18.42
2023-03-22T12:21:02.090Z,18.81
2023-03-22T12:23:32.329Z,19.11
2023-03-22T12:26:07.038Z,19.46
2023-03-22T12:29:03.889Z,19.06
2023-03-22T12:31:45.980Z,20.88
2023-03-22T12:34:18.966Z,19.43
2023-03-22T12:36:51.248Z,19.87
2023-03-22T12:39:32.670Z,19.45
2023-03-22T12:42:07.026Z,19.85
2023-03-22T12:44:39.428Z,20.45
2023-03-22T12:47:07.199Z,20.30
2023-03-22T12:49:40.733Z,20.76
2023-03-22T12:52:37.640Z,20.04
2023-03-22T12:55:21.758Z,20.36
2023-03-22T12:57:52.643Z,20.90
2023-03-22T13:00:34.123Z,19.86
2023-03-22T13:03:10.381Z,18.93
2023-03-22T13:05:37.855Z,18.68
2023-03-22T13:10:31.467Z,19.11
2023-03-22T13:13:07.097Z,18.26
2023-03-22T13:15:42.158Z,18.38
2023-03-22T13:18:45.449Z,17.65
2023-03-22T13:21:34.943Z,18.20
2023-03-22T13:24:07.702Z,17.81
2023-03-22T13:26:39.812Z,17.86
2023-03-22T13:29:22.395Z,18.46
2023-03-22T13:31:52.067Z,19.75
2023-03-22T13:34:21.757Z,20.71
2023-03-22T13:36:58.372Z,20.66
2023-03-22T13:39:27.536Z,21.28
2023-03-22T13:42:07.186Z,20.10
2023-03-22T13:44:40.279Z,19.68
2023-03-22T13:47:30.792Z,20.33
2023-03-22T13:50:07.451Z,19.54
2023-03-22T13:52:38.817Z,19.46
2023-03-22T13:55:06.025Z,18.86
2023-03-22T13:57:58.482Z,18.86
2023-03-22T14:00:33.947Z,18.79
2023-03-22T14:03:07.594Z,18.53
2023-03-22T14:05:37.780Z,18.45
2023-03-22T14:10:31.803Z,18.27
2023-03-22T14:15:45.199Z,18.29
2023-03-22T14:18:26.988Z,18.26
2023-03-22T14:20:58.370Z,17.92
2023-03-22T14:53:39.030Z,19.71
2023-03-22T14:56:06.141Z,19.34
2023-03-22T14:58:36.128Z,20.10
2023-03-22T15:01:08.463Z,20.64
2023-03-22T15:03:35.363Z,21.39
2023-03-22T15:06:03.295Z,21.57
2023-03-22T15:08:33.012Z,19.89
2023-03-22T15:11:03.348Z,19.78
2023-03-22T15:13:31.439Z,21.51
2023-03-22T15:15:58.801Z,21.77
2023-03-22T15:18:31.148Z,20.75
2023-03-22T15:21:00.311Z,19.45
2023-03-22T15:23:32.097Z,19.55
2023-03-22T15:26:01.082Z,18.88
2023-03-22T15:28:31.410Z,18.74
2023-03-22T15:31:04.149Z,18.69
2023-03-22T15:33:42.269Z,18.82
2023-03-22T15:36:17.978Z,19.67
2023-03-22T15:38:46.978Z,19.85
2023-03-22T15:41:44.885Z,19.01
2023-03-22T15:44:27.776Z,20.18
2023-03-22T15:47:07.132Z,20.76
2023-03-22T15:49:36.263Z,19.64
2023-03-22T15:52:06.155Z,19.27
2023-03-22T15:54:34.356Z,19.78
2023-03-22T15:57:06.183Z,20.39
2023-03-22T15:59:32.982Z,20.23
2023-03-22T16:02:01.997Z,19.87
2023-03-22T16:04:34.667Z,20.73
2023-03-22T16:07:02.133Z,21.20
2023-03-22T16:09:29.027Z,20.93
2023-03-22T16:11:55.788Z,20.45
2023-03-22T16:14:22.676Z,20.77
2023-03-22T16:16:49.642Z,20.16
2023-03-22T16:19:16.476Z,20.13
2023-03-22T16:21:43.418Z,19.74
2023-03-22T16:24:12.313Z,18.98
2023-03-22T16:26:40.265Z,18.53
2023-03-22T16:29:07.843Z,18.08
2023-03-22T16:31:34.794Z,17.95
2023-03-22T16:34:02.343Z,17.92
2023-03-22T16:36:29.415Z,17.89
2023-03-22T16:38:56.371Z,17.60
2023-03-22T16:41:25.464Z,17.42
2023-03-22T16:43:54.002Z,17.31
2023-03-22T16:46:21.176Z,17.15
2023-03-22T16:48:48.148Z,17.03
2023-03-22T16:51:30.913Z,16.84
2023-03-22T16:53:59.094Z,16.68
2023-03-22T16:56:30.772Z,16.59
2023-03-22T16:58:57.908Z,16.53
2023-03-22T17:01:26.144Z,16.42
2023-03-22T17:03:53.204Z,16.34
2023-03-22T17:06:26.600Z,16.25
2023-03-22T17:08:53.411Z,16.22
2023-03-22T17:11:26.168Z,16.15
2023-03-22T17:13:55.066Z,16.15
2023-03-22T17:16:22.004Z,16.05
2023-03-22T17:18:49.636Z,15.98
2023-03-22T17:21:21.800Z,15.98
2023-03-22T17:23:49.833Z,16.00
2023-03-22T17:26:20.382Z,15.89
2023-03-22T17:28:47.192Z,15.91
2023-03-22T17:31:16.153Z,15.86
2023-03-22T17:33:43.101Z,15.81
2023-03-22T17:36:13.304Z,15.65
2023-03-22T17:38:45.986Z,15.58
2023-03-22T17:41:27.807Z,15.54
2023-03-22T17:43:54.697Z,15.61
2023-03-22T17:48:51.378Z,15.48
2023-03-22T17:51:18.200Z,15.54
2023-03-22T17:54:33.859Z,15.41
2023-03-22T17:57:03.446Z,15.30
2023-03-22T17:59:18.358Z,15.36
2023-03-22T18:01:45.428Z,15.34
2023-03-22T18:04:12.403Z,15.28
2023-03-22T18:06:39.397Z,15.26
2023-03-22T18:11:31.647Z,15.29
2023-03-22T18:14:13.749Z,15.26
2023-03-22T18:16:52.976Z,15.23
2023-03-22T18:19:18.343Z,15.28
2023-03-22T18:21:53.429Z,15.33
2023-03-22T18:24:20.628Z,15.23
2023-03-22T18:27:03.606Z,15.28
2023-03-22T18:29:31.696Z,15.27
2023-03-22T18:32:08.896Z,15.18
2023-03-22T18:34:33.986Z,15.24
2023-03-22T18:37:01.331Z,15.22
2023-03-22T18:42:16.501Z,15.18
2023-03-22T18:44:32.017Z,15.17
2023-03-22T18:46:59.107Z,15.09
2023-03-22T18:49:26.076Z,15.14
2023-03-22T18:52:36.108Z,15.16
2023-03-22T18:54:32.859Z,15.14
2023-03-22T18:57:00.878Z,15.06
2023-03-22T18:59:30.987Z,15.04
2023-03-22T19:02:09.826Z,15.14
2023-03-22T19:04:31.706Z,15.03
2023-03-22T19:07:01.126Z,14.95
2023-03-22T19:09:29.829Z,14.94
2023-03-22T19:11:58.312Z,14.89
2023-03-22T19:15:17.574Z,14.84
2023-03-22T19:17:12.519Z,14.80
2023-03-22T19:19:39.422Z,14.82
2023-03-22T19:22:07.279Z,14.80
2023-03-22T19:24:34.603Z,14.71
2023-03-22T19:27:11.446Z,14.79
2023-03-22T19:29:31.700Z,14.64
2023-03-22T19:31:59.946Z,14.71
2023-03-22T19:34:29.438Z,14.62
2023-03-22T19:36:58.166Z,14.61
2023-03-22T19:39:26.388Z,14.71
2023-03-22T19:42:04.121Z,14.54
2023-03-22T19:44:31.660Z,14.46
2023-03-22T19:49:26.112Z,14.43
2023-03-22T19:51:55.300Z,14.32
2023-03-22T19:54:33.190Z,14.32
2023-03-22T19:57:10.189Z,14.22
2023-03-22T20:04:33.369Z,14.10
2023-03-22T20:07:02.450Z,14.08
2023-03-22T20:09:29.635Z,14.04
2023-03-22T20:11:56.558Z,14.03
2023-03-22T20:14:23.715Z,13.96
2023-03-22T20:16:56.524Z,13.97
2023-03-22T20:19:32.964Z,14.00
2023-03-22T20:21:59.927Z,13.84
2023-03-22T20:24:27.052Z,13.75
2023-03-22T20:26:54.054Z,13.74
2023-03-22T20:29:22.261Z,13.70
2023-03-22T20:31:52.211Z,13.65
2023-03-22T20:34:21.221Z,13.54
2023-03-22T20:36:48.221Z,13.57
2023-03-22T20:39:15.140Z,13.67
2023-03-22T20:41:42.121Z,13.62
2023-03-22T20:44:10.046Z,13.58
2023-03-22T20:46:36.948Z,13.59
2023-03-22T20:49:04.138Z,13.50
2023-03-22T20:51:33.165Z,13.53
2023-03-22T20:54:00.246Z,13.43
2023-03-22T20:56:27.658Z,13.39
2023-03-22T20:58:55.224Z,13.33
2023-03-22T21:01:22.089Z,13.32
2023-03-22T21:03:49.179Z,13.24
2023-03-22T21:06:16.756Z,13.29
2023-03-22T21:08:43.572Z,13.33
2023-03-22T21:11:12.675Z,13.37
2023-03-22T21:13:40.545Z,13.38
2023-03-22T21:16:17.158Z,13.39
2023-03-22T21:18:44.745Z,13.38
2023-03-22T21:21:12.195Z,13.36
2023-03-22T21:23:39.794Z,13.30
2023-03-22T21:26:07.528Z,13.29
2023-03-22T21:28:34.866Z,13.26
2023-03-22T21:33:31.751Z,13.18
2023-03-22T21:36:00.194Z,13.15
2023-03-22T21:38:27.581Z,13.16
2023-03-22T21:40:58.500Z,13.15
2023-03-22T21:43:26.433Z,13.12
2023-03-22T21:45:57.885Z,13.10
2023-03-22T21:48:26.760Z,13.13
2023-03-22T21:50:54.668Z,13.12
2023-03-22T21:53:23.719Z,13.07
2023-03-22T21:55:53.661Z,13.01
2023-03-22T21:58:24.563Z,13.05
2023-03-22T22:00:53.454Z,13.01
2023-03-22T22:03:20.880Z,12.99
2023-03-22T22:05:52.633Z,13.00
2023-03-22T22:08:21.893Z,13.02
2023-03-22T22:11:00.867Z,12.99
2023-03-22T22:13:29.417Z,12.94
2023-03-22T22:15:58.231Z,12.91
2023-03-22T22:18:25.738Z,12.88
2023-03-22T22:21:03.023Z,12.92
2023-03-22T22:23:32.490Z,12.87
2023-03-22T22:26:00.839Z,12.86
2023-03-22T22:28:28.311Z,12.88
2023-03-22T22:30:55.256Z,12.89
2023-03-22T22:33:22.634Z,12.85
2023-03-22T22:35:50.116Z,12.85
2023-03-22T22:38:17.285Z,12.83
2023-03-22T22:40:45.659Z,12.78
2023-03-22T22:43:13.281Z,12.78
2023-03-22T22:45:40.412Z,12.83
2023-03-22T22:48:07.592Z,12.78
2023-03-22T22:50:34.497Z,12.79
2023-03-22T22:53:01.338Z,12.78
2023-03-22T22:55:28.704Z,12.84
2023-03-22T22:57:55.696Z,12.75
2023-03-22T23:00:22.739Z,12.76
2023-03-22T23:02:49.660Z,12.70
2023-03-22T23:05:16.636Z,12.77
2023-03-22T23:07:43.392Z,12.80
2023-03-22T23:10:10.422Z,12.86
2023-03-22T23:12:37.596Z,12.83
2023-03-22T23:17:31.719Z,12.75
2023-03-22T23:20:02.238Z,12.96
2023-03-22T23:22:33.341Z,13.11
2023-03-22T23:25:01.159Z,13.06
2023-03-22T23:27:32.813Z,13.06
2023-03-22T23:30:01.029Z,12.97
2023-03-22T23:32:29.165Z,12.94
2023-03-22T23:34:58.816Z,12.82
2023-03-22T23:37:30.968Z,12.66
2023-03-22T23:39:59.369Z,12.72
2023-03-22T23:42:27.274Z,12.73
2023-03-22T23:44:54.286Z,12.79
2023-03-22T23:47:22.247Z,12.82
2023-03-22T23:49:49.139Z,12.97
2023-03-22T23:52:16.681Z,12.85
2023-03-22T23:54:43.574Z,12.88
2023-03-22T23:57:10.361Z,12.99
2023-03-22T23:59:37.731Z,13.19
